Disney Magic — C6PT7 — position and weather

sailwx.info

Track history (hours):
 
Tides and Currents Weather Stations Pressure Air Temp Water Temp Dewpoint Dewpoint Depression Visibility Wind Speed Wind Dir Waves Ship Positions

Disney Magic

Last reported at 2018-Aug-18 00:30 UTC. Time now 2018-Aug-18 00:46 UTC.
Position N 58°33' E 005°20'.

Type: Passenger vessel. MMSI: 308516000.

Date/timePositionNaut miles runAvg speedWind from/ knotsBaromVisibWave heightAir tempDewpointWater temp
2018-Aug-18 00:30N 58°33' E 005°20'510.9
2018-Aug-18 00:00N 58°28' E 005°20'713.4
2018-Aug-17 23:30N 58°21' E 005°22'713.3
2018-Aug-17 23:00N 58°17' E 005°31'713.6
2018-Aug-17 22:30N 58°12' E 005°40'713.4
2018-Aug-17 22:00N 58°07' E 005°49'612.9
2018-Aug-17 21:30N 58°03' E 005°59'713.0
2018-Aug-17 21:00N 57°60' E 006°09'1713.6
2018-Aug-17 19:43N 57°49' E 006°35'514.5
2018-Aug-17 19:21N 57°47' E 006°44'616.8
2018-Aug-17 19:00N 57°47' E 006°55'916.5
2018-Aug-17 18:29N 57°47' E 007°11'816.4
2018-Aug-17 18:00N 57°47' E 007°26'816.5
2018-Aug-17 17:30N 57°47' E 007°42'815.9
2018-Aug-17 17:00N 57°49' E 007°56'816.7
2018-Aug-17 16:30N 57°56' E 008°02'815.7
2018-Aug-17 16:00N 58°04' E 008°05'510.2
2018-Aug-17 15:30N 58°08' E 007°60'0 0.1
2018-Aug-17 15:00N 58°08' E 007°60'0 0.0
2018-Aug-17 14:00N 58°08' E 007°60'0 0.0
2018-Aug-17 13:30N 58°08' E 007°60'0 0.0
2018-Aug-17 13:00N 58°08' E 007°60'0 0.0
2018-Aug-17 12:30N 58°08' E 007°60'0 0.0
2018-Aug-17 12:00N 58°08' E 007°60'0 0.0
2018-Aug-17 11:30N 58°08' E 007°60'0 0.0
2018-Aug-17 11:00N 58°08' E 007°60'0 0.0
2018-Aug-17 10:30N 58°08' E 007°60'0 0.0
2018-Aug-17 10:00N 58°08' E 007°60'0 0.0
2018-Aug-17 09:30N 58°08' E 007°60'0 0.0
2018-Aug-17 09:00N 58°08' E 007°60'0 0.0
2018-Aug-17 08:30N 58°08' E 007°60'0 0.0
2018-Aug-17 08:00N 58°08' E 007°60'0 0.0
2018-Aug-17 07:30N 58°08' E 007°60'0 0.0
2018-Aug-17 07:00N 58°08' E 007°60'0 0.0
2018-Aug-17 06:30N 58°08' E 007°60'0 0.0
2018-Aug-17 06:00N 58°08' E 007°60'1 1.5
2018-Aug-17 05:30N 58°08' E 008°00'510.2
2018-Aug-17 05:01N 58°04' E 008°06'815.6
2018-Aug-17 04:30N 57°60' E 008°18'1020.2
2018-Aug-17 04:00N 57°56' E 008°36'4319.7
2018-Aug-17 01:50N 57°52' E 009°56'619.0
2018-Aug-17 01:31N 57°51' E 010°08'1019.4
2018-Aug-17 01:00N 57°51' E 010°26'917.1
2018-Aug-17 00:31N 57°49' E 010°42'816.5
2018-Aug-17 00:00N 57°44' E 010°54'816.7
2018-Aug-16 23:31N 57°39' E 011°06'816.2
2018-Aug-16 23:00N 57°33' E 011°17'816.5
2018-Aug-16 22:31N 57°27' E 011°27'816.6
2018-Aug-16 22:01N 57°19' E 011°32'816.7
2018-Aug-16 21:30N 57°11' E 011°37'816.7
2018-Aug-16 21:01N 57°04' E 011°43'816.7
2018-Aug-16 20:31N 56°56' E 011°49'816.3
2018-Aug-16 20:00N 56°48' E 011°53'3016.5
2018-Aug-16 18:10N 56°20' E 012°14'317.0
2018-Aug-16 18:01N 56°18' E 012°17'917.4
2018-Aug-16 17:30N 56°11' E 012°27'816.0
2018-Aug-16 17:00N 56°05' E 012°36'816.5
2018-Aug-16 16:30N 55°57' E 012°40'815.9
2018-Aug-16 16:00N 55°49' E 012°42'713.7
2018-Aug-16 15:30N 55°43' E 012°38'0 0.6
2018-Aug-16 14:59N 55°43' E 012°37'0 0.0
2018-Aug-16 14:29N 55°43' E 012°37'0 0.0
2018-Aug-16 13:56N 55°43' E 012°37'0 0.0
2018-Aug-16 13:29N 55°43' E 012°37'0 0.0
2018-Aug-16 12:59N 55°43' E 012°37'0 0.0
2018-Aug-16 12:29N 55°43' E 012°37'0 0.0
2018-Aug-16 11:59N 55°43' E 012°37'0 0.0
2018-Aug-16 11:29N 55°43' E 012°37'0 0.0
2018-Aug-16 10:59N 55°43' E 012°37'0 0.0
2018-Aug-16 10:29N 55°43' E 012°37'0 0.0
2018-Aug-16 09:59N 55°43' E 012°37'0 0.0
2018-Aug-16 09:29N 55°43' E 012°37'0 0.0
2018-Aug-16 08:59N 55°43' E 012°37'0 0.0
2018-Aug-16 08:29N 55°43' E 012°37'0 0.0
2018-Aug-16 07:59N 55°43' E 012°37'0 0.0
2018-Aug-16 07:29N 55°43' E 012°37'0 0.0
2018-Aug-16 06:59N 55°43' E 012°37'0 0.0
2018-Aug-16 06:29N 55°43' E 012°37'0 0.0
2018-Aug-16 05:59N 55°43' E 012°37'0 0.0
2018-Aug-16 05:29N 55°43' E 012°37'0 0.0
2018-Aug-16 04:59N 55°43' E 012°37'2 4.9
2018-Aug-16 04:31N 55°45' E 012°40'816.8
2018-Aug-16 04:00N 55°53' E 012°40'918.2
2018-Aug-16 03:30N 56°02' E 012°39'918.5
2018-Aug-16 03:00N 56°08' E 012°27'6515.2
2018-Aug-15 22:44N 55°31' E 010°53'519.8
2018-Aug-15 22:30N 55°27' E 010°57'919.0
2018-Aug-15 22:00N 55°18' E 011°03'1019.5
2018-Aug-15 21:30N 55°08' E 011°03'1121.3
2018-Aug-15 21:00N 54°58' E 010°57'1021.0
2018-Aug-15 20:30N 54°49' E 010°50'918.8
2018-Aug-15 20:00N 54°39' E 010°51'1020.2
2018-Aug-15 19:30N 54°37' E 011°08'1121.2
2018-Aug-15 19:00N 54°32' E 011°25'1121.1
2018-Aug-15 18:31N 54°28' E 011°41'1121.3
2018-Aug-15 17:59N 54°26' E 012°01'816.5
2018-Aug-15 17:30N 54°30' E 012°12'915.9
2018-Aug-15 16:56N 54°38' E 012°20'2918.4
2018-Aug-15 15:20N 54°52' E 013°05'2320.2
2018-Aug-15 14:11N 54°59' E 013°43'520.6
2018-Aug-15 13:57N 55°01' E 013°51'920.3
2018-Aug-15 13:30N 55°05' E 014°06'1019.8
2018-Aug-15 13:00N 55°12' E 014°17'1020.2
2018-Aug-15 12:30N 55°20' E 014°27'1019.9
2018-Aug-15 12:00N 55°27' E 014°40'1020.6
2018-Aug-15 11:30N 55°32' E 014°56'1020.7
2018-Aug-15 11:00N 55°37' E 015°12'1020.6
2018-Aug-15 10:30N 55°42' E 015°28'1020.6
2018-Aug-15 10:00N 55°48' E 015°42'1020.6
2018-Aug-15 09:30N 55°54' E 015°58'1020.7
2018-Aug-15 09:00N 55°59' E 016°14'1020.6
2018-Aug-15 08:30N 56°04' E 016°30'1020.7
2018-Aug-15 08:00N 56°10' E 016°45'1121.3
2018-Aug-15 07:30N 56°20' E 016°52'1121.3
2018-Aug-15 06:59N 56°31' E 016°59'20718.2
2018-Aug-14 19:36N 59°45' E 019°15'419.1
2018-Aug-14 19:22N 59°43' E 019°06'615.8
2018-Aug-14 18:58N 59°40' E 018°56'510.3
2018-Aug-14 18:30N 59°37' E 018°48'611.7
2018-Aug-14 17:58N 59°34' E 018°38'5 9.6
2018-Aug-14 17:25N 59°31' E 018°29'511.2
2018-Aug-14 17:01N 59°27' E 018°25'4 8.7
2018-Aug-14 16:31N 59°22' E 018°27'4 8.4
2018-Aug-14 16:01N 59°22' E 018°19'510.4
2018-Aug-14 15:31N 59°20' E 018°09'1 1.4
2018-Aug-14 15:00N 59°21' E 018°08'0 0.0
2018-Aug-14 14:30N 59°21' E 018°08'0 0.0
2018-Aug-14 14:00N 59°21' E 018°08'0 0.0
2018-Aug-14 13:30N 59°21' E 018°08'0 0.0
2018-Aug-14 13:00N 59°21' E 018°08'0 0.0
2018-Aug-14 12:30N 59°21' E 018°08'0 0.0
2018-Aug-14 12:00N 59°21' E 018°08'0 0.0
2018-Aug-14 11:30N 59°21' E 018°08'0 0.0
2018-Aug-14 11:00N 59°21' E 018°08'0 0.0
2018-Aug-14 10:30N 59°21' E 018°08'0 0.0
2018-Aug-14 10:00N 59°21' E 018°08'0 0.0
2018-Aug-14 09:30N 59°21' E 018°08'0 0.0
2018-Aug-14 09:00N 59°21' E 018°08'0 0.0
2018-Aug-14 08:30N 59°21' E 018°08'0 0.0
2018-Aug-14 08:00N 59°21' E 018°08'0 0.0
2018-Aug-14 07:30N 59°21' E 018°08'0 0.0
2018-Aug-14 07:00N 59°21' E 018°08'0 0.1
2018-Aug-14 06:30N 59°21' E 018°08'4 7.4
2018-Aug-14 06:00N 59°21' E 018°15'5 9.7
2018-Aug-14 05:30N 59°22' E 018°24'3 5.6
2018-Aug-14 05:00N 59°25' E 018°25'5 9.6
2018-Aug-14 04:30N 59°29' E 018°27'5 9.7
2018-Aug-14 04:00N 59°32' E 018°35'510.6
2018-Aug-14 03:30N 59°35' E 018°44'612.1
2018-Aug-14 03:00N 59°39' E 018°53'510.5
2018-Aug-14 02:30N 59°42' E 019°02'917.5
2018-Aug-14 02:00N 59°45' E 019°18'713.9
2018-Aug-14 01:30N 59°48' E 019°31'816.2
2018-Aug-14 01:00N 59°47' E 019°47'815.0
2018-Aug-14 00:30N 59°42' E 019°58'3316.6
2018-Aug-13 22:32N 59°31' E 020°59'120.5
2018-Aug-13 22:30N 59°31' E 021°00'1020.2
2018-Aug-13 22:01N 59°27' E 021°18'1120.6
2018-Aug-13 21:29N 59°26' E 021°39'3820.2
2018-Aug-13 19:36N 59°34' E 022°53'320.0
2018-Aug-13 19:27N 59°35' E 022°58'920.1
2018-Aug-13 19:01N 59°37' E 023°15'1019.9
2018-Aug-13 18:31N 59°40' E 023°34'1019.7
2018-Aug-13 18:00N 59°43' E 023°53'1019.8
2018-Aug-13 17:29N 59°45' E 024°13'919.7
2018-Aug-13 17:01N 59°48' E 024°31'1019.5
2018-Aug-13 16:31N 59°50' E 024°50'918.1
2018-Aug-13 16:01N 59°59' E 024°57'714.6
2018-Aug-13 15:30N 60°06' E 024°54'3 6.4
2018-Aug-13 15:00N 60°09' E 024°55'0 0.1
2018-Aug-13 14:27N 60°09' E 024°55'0 0.0
2018-Aug-13 14:00N 60°09' E 024°55'0 0.0
2018-Aug-13 13:30N 60°09' E 024°55'0 0.0
2018-Aug-13 13:00N 60°09' E 024°55'0 0.0
2018-Aug-13 12:30N 60°09' E 024°55'0 0.0
2018-Aug-13 12:00N 60°09' E 024°55'0 0.0
2018-Aug-13 11:30N 60°09' E 024°55'0 0.0
2018-Aug-13 11:00N 60°09' E 024°55'0 0.0
2018-Aug-13 10:30N 60°09' E 024°55'0 0.0
2018-Aug-13 09:57N 60°09' E 024°55'0 0.0
2018-Aug-13 09:30N 60°09' E 024°55'0 0.0
2018-Aug-13 08:54N 60°09' E 024°55'0 0.0
2018-Aug-13 08:30N 60°09' E 024°55'0 0.0
2018-Aug-13 08:00N 60°09' E 024°55'1 1.7
2018-Aug-13 07:30N 60°08' E 024°54'714.5
2018-Aug-13 07:00N 60°01' E 024°56'815.5
2018-Aug-13 06:31N 59°54' E 024°59'1018.9
2018-Aug-13 06:00N 59°53' E 025°18'1020.3
2018-Aug-13 05:30N 59°54' E 025°38'1520.4
2018-Aug-13 04:47N 59°58' E 026°06'720.6
2018-Aug-13 04:28N 59°60' E 026°19'920.5
2018-Aug-13 04:00N 60°01' E 026°37'1020.5
2018-Aug-13 03:30N 59°60' E 026°57'1020.1
2018-Aug-13 03:00N 60°03' E 027°16'1020.4
2018-Aug-13 02:30N 60°08' E 027°34'1019.3
2018-Aug-13 02:00N 60°11' E 027°52'1020.1
2018-Aug-13 01:30N 60°09' E 028°12'1019.3
2018-Aug-13 01:00N 60°04' E 028°29'1019.5
2018-Aug-13 00:31N 60°03' E 028°48'1019.7
2018-Aug-12 23:59N 60°02' E 029°08'917.9
2018-Aug-12 23:28N 60°02' E 029°27'510.0
2018-Aug-12 22:58N 60°00' E 029°37'510.5
2018-Aug-12 22:30N 59°59' E 029°46'5 9.8
2018-Aug-12 22:00N 59°56' E 029°54'5 9.6
2018-Aug-12 21:30N 59°56' E 030°04'4 7.5
2018-Aug-12 21:00N 59°57' E 030°11'0 0.3
2018-Aug-12 20:29N 59°57' E 030°11'0 0.0
2018-Aug-12 19:59N 59°57' E 030°11'0 0.0
2018-Aug-12 19:29N 59°57' E 030°11'0 0.0
2018-Aug-12 18:59N 59°57' E 030°11'0 0.0
2018-Aug-12 18:29N 59°57' E 030°11'0 0.0
2018-Aug-12 17:59N 59°57' E 030°11'0 0.0
2018-Aug-12 17:29N 59°57' E 030°11'0 0.0
2018-Aug-12 16:59N 59°57' E 030°11'0 0.0
2018-Aug-12 16:29N 59°57' E 030°11'0 0.0
2018-Aug-12 15:59N 59°57' E 030°11'0 0.0
2018-Aug-12 15:29N 59°57' E 030°11'0 0.0
2018-Aug-12 14:59N 59°57' E 030°11'0 0.0
2018-Aug-12 14:29N 59°57' E 030°11'0 0.0
2018-Aug-12 13:59N 59°57' E 030°11'0 0.0
2018-Aug-12 13:29N 59°57' E 030°11'0 0.0
2018-Aug-12 12:59N 59°57' E 030°11'0 0.0
2018-Aug-12 12:29N 59°57' E 030°11'0 0.0
2018-Aug-12 11:59N 59°57' E 030°11'0 0.0
2018-Aug-12 11:29N 59°57' E 030°11'0 0.0
2018-Aug-12 10:59N 59°57' E 030°11'0 0.0
2018-Aug-12 10:29N 59°57' E 030°11'0 0.0
2018-Aug-12 09:59N 59°57' E 030°11'0 0.0
2018-Aug-12 09:29N 59°57' E 030°11'0 0.0
2018-Aug-12 08:59N 59°57' E 030°11'0 0.0
2018-Aug-12 08:29N 59°57' E 030°11'0 0.0
2018-Aug-12 07:59N 59°57' E 030°11'0 0.0
2018-Aug-12 07:23N 59°57' E 030°11'0 0.0
2018-Aug-12 06:59N 59°57' E 030°11'0 0.0
2018-Aug-12 06:29N 59°57' E 030°11'0 0.0
2018-Aug-12 05:59N 59°57' E 030°11'0 0.0
2018-Aug-12 05:29N 59°57' E 030°11'0 0.0
2018-Aug-12 04:59N 59°57' E 030°11'0 0.0
2018-Aug-12 04:29N 59°57' E 030°11'0 0.0
2018-Aug-12 03:59N 59°57' E 030°11'0 0.0
2018-Aug-12 03:29N 59°57' E 030°11'0 0.3
2018-Aug-12 03:00N 59°57' E 030°11'4 7.6
2018-Aug-12 02:30N 59°56' E 030°04'5 9.9
2018-Aug-12 02:00N 59°57' E 029°54'510.1
2018-Aug-12 01:30N 59°59' E 029°45'510.9
2018-Aug-12 01:00N 60°01' E 029°35'5 9.7
2018-Aug-12 00:30N 60°01' E 029°25'917.3
2018-Aug-11 23:59N 60°02' E 029°07'816.8
2018-Aug-11 23:30N 60°02' E 028°51'917.8
2018-Aug-11 23:00N 60°02' E 028°33'917.3
2018-Aug-11 22:30N 60°06' E 028°18'917.4
2018-Aug-11 22:00N 60°09' E 028°01'815.8
2018-Aug-11 21:31N 60°10' E 027°46'816.9
2018-Aug-11 21:01N 60°06' E 027°31'917.6
2018-Aug-11 20:30N 60°01' E 027°16'816.8
2018-Aug-11 20:00N 59°58' E 027°01'816.9
2018-Aug-11 19:31N 59°59' E 026°45'816.9
2018-Aug-11 19:01N 59°57' E 026°28'917.1
2018-Aug-11 18:31N 59°55' E 026°11'816.9
2018-Aug-11 18:01N 59°53' E 025°55'917.0
2018-Aug-11 17:31N 59°51' E 025°39'917.1
2018-Aug-11 17:00N 59°49' E 025°22'917.2
2018-Aug-11 16:31N 59°48' E 025°05'816.4
2018-Aug-11 16:00N 59°44' E 024°50'816.9
2018-Aug-11 15:31N 59°37' E 024°41'815.7
2018-Aug-11 15:01N 59°30' E 024°46'3 4.6
2018-Aug-11 14:27N 59°27' E 024°46'0 0.0
2018-Aug-11 13:59N 59°27' E 024°46'0 0.0
2018-Aug-11 13:29N 59°27' E 024°46'0 0.0
2018-Aug-11 12:59N 59°27' E 024°46'0 0.0
2018-Aug-11 12:29N 59°27' E 024°46'0 0.0
2018-Aug-11 11:59N 59°27' E 024°46'0 0.0
2018-Aug-11 11:29N 59°27' E 024°46'0 0.0
2018-Aug-11 10:56N 59°27' E 024°46'0 0.0
2018-Aug-11 10:29N 59°27' E 024°46'0 0.0
2018-Aug-11 10:00N 59°27' E 024°46'0 0.0
2018-Aug-11 09:30N 59°27' E 024°46'0 0.0
2018-Aug-11 09:00N 59°27' E 024°46'0 0.0
2018-Aug-11 08:29N 59°27' E 024°46'0 0.0
2018-Aug-11 07:59N 59°27' E 024°46'0 0.0
2018-Aug-11 07:29N 59°27' E 024°46'0 0.0
2018-Aug-11 07:00N 59°27' E 024°46'4 7.4
2018-Aug-11 06:30N 59°30' E 024°44'713.5
2018-Aug-11 06:01N 59°30' E 024°30'917.1
2018-Aug-11 05:31N 59°30' E 024°14'917.1
2018-Aug-11 05:00N 59°30' E 023°56'817.0
2018-Aug-11 04:31N 59°30' E 023°40'917.0
2018-Aug-11 04:00N 59°30' E 023°23'916.9
2018-Aug-11 03:28N 59°29' E 023°05'28919.5
2018-Aug-10 12:38N 55°51' E 017°10'420.4
2018-Aug-10 12:27N 55°50' E 017°04'920.5
2018-Aug-10 12:00N 55°48' E 016°48'1020.5
2018-Aug-10 11:30N 55°45' E 016°30'1020.6
2018-Aug-10 11:01N 55°43' E 016°13'1020.9
2018-Aug-10 10:30N 55°40' E 015°55'1020.8
2018-Aug-10 10:00N 55°37' E 015°37'1020.6
2018-Aug-10 09:31N 55°34' E 015°20'1020.7
2018-Aug-10 09:00N 55°30' E 015°03'1121.0
2018-Aug-10 08:30N 55°25' E 014°46'1020.3
2018-Aug-10 08:00N 55°18' E 014°32'1020.5
2018-Aug-10 07:30N 55°10' E 014°22'1020.4
2018-Aug-10 07:00N 55°03' E 014°10'5220.5
2018-Aug-10 04:27N 54°45' E 012°44'920.4
2018-Aug-10 04:00N 54°40' E 012°31'1717.1
2018-Aug-10 03:01N 54°27' E 012°13'120.3
2018-Aug-10 02:59N 54°26' E 012°13'1019.3
2018-Aug-10 02:27N 54°24' E 011°55'919.9
2018-Aug-10 02:00N 54°26' E 011°41'1020.0
2018-Aug-10 01:30N 54°30' E 011°25'1019.8
2018-Aug-10 01:00N 54°35' E 011°10'1019.5
2018-Aug-10 00:30N 54°40' E 010°56'917.0
2018-Aug-10 00:00N 54°48' E 010°51'917.9
2018-Aug-09 23:30N 54°57' E 010°55'917.7
2018-Aug-09 23:00N 55°05' E 011°02'918.0
2018-Aug-09 22:30N 55°14' E 011°06'1118.8
2018-Aug-09 21:55N 55°24' E 010°59'1018.9
2018-Aug-09 21:23N 55°33' E 010°50'5416.3
2018-Aug-09 18:03N 56°11' E 011°59'420.2
2018-Aug-09 17:51N 56°12' E 012°06'719.0
2018-Aug-09 17:30N 56°13' E 012°18'1019.8
2018-Aug-09 17:00N 56°07' E 012°32'816.8
2018-Aug-09 16:30N 56°00' E 012°41'815.5
2018-Aug-09 16:00N 55°52' E 012°40'714.6
2018-Aug-09 15:30N 55°45' E 012°40'3 5.2
2018-Aug-09 15:00N 55°43' E 012°38'0 0.0
2018-Aug-09 14:29N 55°43' E 012°38'0 0.0
2018-Aug-09 13:59N 55°43' E 012°38'0 0.0
2018-Aug-09 13:29N 55°43' E 012°38'0 0.0
2018-Aug-09 12:59N 55°43' E 012°38'0 0.0
2018-Aug-09 12:29N 55°43' E 012°38'0 0.0
2018-Aug-09 11:59N 55°43' E 012°38'0 0.0
2018-Aug-09 11:29N 55°43' E 012°38'0 0.0
2018-Aug-09 10:59N 55°43' E 012°38'0 0.0
2018-Aug-09 10:29N 55°43' E 012°38'0 0.0
2018-Aug-09 09:59N 55°43' E 012°38'0 0.0
2018-Aug-09 09:29N 55°43' E 012°38'0 0.0
2018-Aug-09 08:59N 55°43' E 012°38'0 0.0
2018-Aug-09 08:29N 55°43' E 012°38'0 0.0
2018-Aug-09 07:59N 55°43' E 012°38'0 0.0
2018-Aug-09 07:29N 55°43' E 012°38'0 0.0
2018-Aug-09 06:59N 55°43' E 012°38'0 0.0
2018-Aug-09 06:29N 55°43' E 012°38'0 0.0
2018-Aug-09 05:59N 55°43' E 012°38'0 0.0
2018-Aug-09 05:29N 55°43' E 012°38'0 0.0
2018-Aug-09 04:59N 55°43' E 012°38'0 0.0
2018-Aug-09 04:29N 55°43' E 012°38'0 0.0
2018-Aug-09 03:59N 55°43' E 012°38'0 0.7
2018-Aug-09 03:30N 55°43' E 012°38'5 9.2
2018-Aug-09 03:01N 55°47' E 012°42'612.5
2018-Aug-09 02:31N 55°53' E 012°39'612.1
2018-Aug-09 02:00N 55°59' E 012°40'612.9
2018-Aug-09 01:30N 56°05' E 012°35'816.9
2018-Aug-09 01:00N 56°10' E 012°23'6513.0
2018-Aug-08 20:01N 55°24' E 011°00'216.4
2018-Aug-08 19:53N 55°23' E 011°02'717.8
2018-Aug-08 19:30N 55°16' E 011°05'816.9
2018-Aug-08 19:00N 55°08' E 011°03'918.1
2018-Aug-08 18:30N 54°59' E 011°01'1019.7
2018-Aug-08 18:00N 54°50' E 010°53'917.8
2018-Aug-08 17:30N 54°41' E 010°54'1019.3
2018-Aug-08 17:00N 54°37' E 011°09'1020.0
2018-Aug-08 16:30N 54°32' E 011°24'919.0
2018-Aug-08 16:00N 54°28' E 011°39'918.6
2018-Aug-08 15:30N 54°26' E 011°54'918.4
2018-Aug-08 15:00N 54°28' E 012°10'918.3
2018-Aug-08 14:30N 54°36' E 012°17'917.7
2018-Aug-08 14:00N 54°42' E 012°28'919.1
2018-Aug-08 13:30N 54°47' E 012°42'1019.7
2018-Aug-08 13:00N 54°50' E 012°58'1020.5
2018-Aug-08 12:30N 54°54' E 013°15'1020.5
2018-Aug-08 12:00N 54°57' E 013°32'1020.2
2018-Aug-08 11:30N 55°00' E 013°48'1021.0
2018-Aug-08 11:00N 55°05' E 014°05'1121.9
2018-Aug-08 10:30N 55°14' E 014°16'1121.8
2018-Aug-08 10:00N 55°22' E 014°29'1121.7
2018-Aug-08 09:30N 55°29' E 014°44'1020.4
2018-Aug-08 09:00N 55°33' E 014°60'1020.2
2018-Aug-08 08:30N 55°38' E 015°16'1020.3
2018-Aug-08 08:00N 55°41' E 015°33'1020.5
2018-Aug-08 07:30N 55°43' E 015°51'1020.5
2018-Aug-08 07:00N 55°46' E 016°08'1020.6
2018-Aug-08 06:30N 55°48' E 016°26'1020.5
2018-Aug-08 06:00N 55°50' E 016°44'1020.7
2018-Aug-08 05:30N 55°53' E 017°02'1020.6
2018-Aug-08 05:01N 55°56' E 017°19'1020.5
2018-Aug-08 04:30N 55°59' E 017°37'1020.4
2018-Aug-08 04:00N 56°03' E 017°53'1020.4
2018-Aug-08 03:30N 56°09' E 018°09'1020.1
2018-Aug-08 03:00N 56°14' E 018°24'1020.2
2018-Aug-08 02:30N 56°19' E 018°40'1019.8
2018-Aug-08 02:00N 56°27' E 018°50'1121.6
2018-Aug-08 01:30N 56°37' E 018°59'1121.6
2018-Aug-08 01:00N 56°46' E 019°08'1121.7
2018-Aug-08 00:30N 56°56' E 019°18'  
Track history (hours):
 
Tides and Currents Weather Stations Pressure Air Temp Water Temp Dewpoint Dewpoint Depression Visibility Wind Speed Wind Dir Waves Ship Positions

Disney Magic

Last reported at 2018-Aug-18 00:30 UTC. Time now 2018-Aug-18 00:46 UTC.
Position N 58°33' E 005°20'.

Type: Passenger vessel. MMSI: 308516000.

Date/timePositionNaut miles runAvg speedWind from/ knotsBaromVisibWave heightAir tempDewpointWater temp
2018-Aug-18 00:30N 58°33' E 005°20'510.9
2018-Aug-18 00:00N 58°28' E 005°20'713.4
2018-Aug-17 23:30N 58°21' E 005°22'713.3
2018-Aug-17 23:00N 58°17' E 005°31'713.6
2018-Aug-17 22:30N 58°12' E 005°40'713.4
2018-Aug-17 22:00N 58°07' E 005°49'612.9
2018-Aug-17 21:30N 58°03' E 005°59'713.0
2018-Aug-17 21:00N 57°60' E 006°09'1713.6
2018-Aug-17 19:43N 57°49' E 006°35'514.5
2018-Aug-17 19:21N 57°47' E 006°44'616.8
2018-Aug-17 19:00N 57°47' E 006°55'916.5
2018-Aug-17 18:29N 57°47' E 007°11'816.4
2018-Aug-17 18:00N 57°47' E 007°26'816.5
2018-Aug-17 17:30N 57°47' E 007°42'815.9
2018-Aug-17 17:00N 57°49' E 007°56'816.7
2018-Aug-17 16:30N 57°56' E 008°02'815.7
2018-Aug-17 16:00N 58°04' E 008°05'510.2
2018-Aug-17 15:30N 58°08' E 007°60'0 0.1
2018-Aug-17 15:00N 58°08' E 007°60'0 0.0
2018-Aug-17 14:00N 58°08' E 007°60'0 0.0
2018-Aug-17 13:30N 58°08' E 007°60'0 0.0
2018-Aug-17 13:00N 58°08' E 007°60'0 0.0
2018-Aug-17 12:30N 58°08' E 007°60'0 0.0
2018-Aug-17 12:00N 58°08' E 007°60'0 0.0
2018-Aug-17 11:30N 58°08' E 007°60'0 0.0
2018-Aug-17 11:00N 58°08' E 007°60'0 0.0
2018-Aug-17 10:30N 58°08' E 007°60'0 0.0
2018-Aug-17 10:00N 58°08' E 007°60'0 0.0
2018-Aug-17 09:30N 58°08' E 007°60'0 0.0
2018-Aug-17 09:00N 58°08' E 007°60'0 0.0
2018-Aug-17 08:30N 58°08' E 007°60'0 0.0
2018-Aug-17 08:00N 58°08' E 007°60'0 0.0
2018-Aug-17 07:30N 58°08' E 007°60'0 0.0
2018-Aug-17 07:00N 58°08' E 007°60'0 0.0
2018-Aug-17 06:30N 58°08' E 007°60'0 0.0
2018-Aug-17 06:00N 58°08' E 007°60'1 1.5
2018-Aug-17 05:30N 58°08' E 008°00'510.2
2018-Aug-17 05:01N 58°04' E 008°06'815.6
2018-Aug-17 04:30N 57°60' E 008°18'1020.2
2018-Aug-17 04:00N 57°56' E 008°36'4319.7
2018-Aug-17 01:50N 57°52' E 009°56'619.0
2018-Aug-17 01:31N 57°51' E 010°08'1019.4
2018-Aug-17 01:00N 57°51' E 010°26'917.1
2018-Aug-17 00:31N 57°49' E 010°42'816.5
2018-Aug-17 00:00N 57°44' E 010°54'816.7
2018-Aug-16 23:31N 57°39' E 011°06'816.2
2018-Aug-16 23:00N 57°33' E 011°17'816.5
2018-Aug-16 22:31N 57°27' E 011°27'816.6
2018-Aug-16 22:01N 57°19' E 011°32'816.7
2018-Aug-16 21:30N 57°11' E 011°37'816.7
2018-Aug-16 21:01N 57°04' E 011°43'816.7
2018-Aug-16 20:31N 56°56' E 011°49'816.3
2018-Aug-16 20:00N 56°48' E 011°53'3016.5
2018-Aug-16 18:10N 56°20' E 012°14'317.0
2018-Aug-16 18:01N 56°18' E 012°17'917.4
2018-Aug-16 17:30N 56°11' E 012°27'816.0
2018-Aug-16 17:00N 56°05' E 012°36'816.5
2018-Aug-16 16:30N 55°57' E 012°40'815.9
2018-Aug-16 16:00N 55°49' E 012°42'713.7
2018-Aug-16 15:30N 55°43' E 012°38'0 0.6
2018-Aug-16 14:59N 55°43' E 012°37'0 0.0
2018-Aug-16 14:29N 55°43' E 012°37'0 0.0
2018-Aug-16 13:56N 55°43' E 012°37'0 0.0
2018-Aug-16 13:29N 55°43' E 012°37'0 0.0
2018-Aug-16 12:59N 55°43' E 012°37'0 0.0
2018-Aug-16 12:29N 55°43' E 012°37'0 0.0
2018-Aug-16 11:59N 55°43' E 012°37'0 0.0
2018-Aug-16 11:29N 55°43' E 012°37'0 0.0
2018-Aug-16 10:59N 55°43' E 012°37'0 0.0
2018-Aug-16 10:29N 55°43' E 012°37'0 0.0
2018-Aug-16 09:59N 55°43' E 012°37'0 0.0
2018-Aug-16 09:29N 55°43' E 012°37'0 0.0
2018-Aug-16 08:59N 55°43' E 012°37'0 0.0
2018-Aug-16 08:29N 55°43' E 012°37'0 0.0
2018-Aug-16 07:59N 55°43' E 012°37'0 0.0
2018-Aug-16 07:29N 55°43' E 012°37'0 0.0
2018-Aug-16 06:59N 55°43' E 012°37'0 0.0
2018-Aug-16 06:29N 55°43' E 012°37'0 0.0
2018-Aug-16 05:59N 55°43' E 012°37'0 0.0
2018-Aug-16 05:29N 55°43' E 012°37'0 0.0
2018-Aug-16 04:59N 55°43' E 012°37'2 4.9
2018-Aug-16 04:31N 55°45' E 012°40'816.8
2018-Aug-16 04:00N 55°53' E 012°40'918.2
2018-Aug-16 03:30N 56°02' E 012°39'918.5
2018-Aug-16 03:00N 56°08' E 012°27'6515.2
2018-Aug-15 22:44N 55°31' E 010°53'519.8
2018-Aug-15 22:30N 55°27' E 010°57'919.0
2018-Aug-15 22:00N 55°18' E 011°03'1019.5
2018-Aug-15 21:30N 55°08' E 011°03'1121.3
2018-Aug-15 21:00N 54°58' E 010°57'1021.0
2018-Aug-15 20:30N 54°49' E 010°50'918.8
2018-Aug-15 20:00N 54°39' E 010°51'1020.2
2018-Aug-15 19:30N 54°37' E 011°08'1121.2
2018-Aug-15 19:00N 54°32' E 011°25'1121.1
2018-Aug-15 18:31N 54°28' E 011°41'1121.3
2018-Aug-15 17:59N 54°26' E 012°01'816.5
2018-Aug-15 17:30N 54°30' E 012°12'915.9
2018-Aug-15 16:56N 54°38' E 012°20'2918.4
2018-Aug-15 15:20N 54°52' E 013°05'2320.2
2018-Aug-15 14:11N 54°59' E 013°43'520.6
2018-Aug-15 13:57N 55°01' E 013°51'920.3
2018-Aug-15 13:30N 55°05' E 014°06'1019.8
2018-Aug-15 13:00N 55°12' E 014°17'1020.2
2018-Aug-15 12:30N 55°20' E 014°27'1019.9
2018-Aug-15 12:00N 55°27' E 014°40'1020.6
2018-Aug-15 11:30N 55°32' E 014°56'1020.7
2018-Aug-15 11:00N 55°37' E 015°12'1020.6
2018-Aug-15 10:30N 55°42' E 015°28'1020.6
2018-Aug-15 10:00N 55°48' E 015°42'1020.6
2018-Aug-15 09:30N 55°54' E 015°58'1020.7
2018-Aug-15 09:00N 55°59' E 016°14'1020.6
2018-Aug-15 08:30N 56°04' E 016°30'1020.7
2018-Aug-15 08:00N 56°10' E 016°45'1121.3
2018-Aug-15 07:30N 56°20' E 016°52'1121.3
2018-Aug-15 06:59N 56°31' E 016°59'20718.2
2018-Aug-14 19:36N 59°45' E 019°15'419.1
2018-Aug-14 19:22N 59°43' E 019°06'615.8
2018-Aug-14 18:58N 59°40' E 018°56'510.3
2018-Aug-14 18:30N 59°37' E 018°48'611.7
2018-Aug-14 17:58N 59°34' E 018°38'5 9.6
2018-Aug-14 17:25N 59°31' E 018°29'511.2
2018-Aug-14 17:01N 59°27' E 018°25'4 8.7
2018-Aug-14 16:31N 59°22' E 018°27'4 8.4
2018-Aug-14 16:01N 59°22' E 018°19'510.4
2018-Aug-14 15:31N 59°20' E 018°09'1 1.4
2018-Aug-14 15:00N 59°21' E 018°08'0 0.0
2018-Aug-14 14:30N 59°21' E 018°08'0 0.0
2018-Aug-14 14:00N 59°21' E 018°08'0 0.0
2018-Aug-14 13:30N 59°21' E 018°08'0 0.0
2018-Aug-14 13:00N 59°21' E 018°08'0 0.0
2018-Aug-14 12:30N 59°21' E 018°08'0 0.0
2018-Aug-14 12:00N 59°21' E 018°08'0 0.0
2018-Aug-14 11:30N 59°21' E 018°08'0 0.0
2018-Aug-14 11:00N 59°21' E 018°08'0 0.0
2018-Aug-14 10:30N 59°21' E 018°08'0 0.0
2018-Aug-14 10:00N 59°21' E 018°08'0 0.0
2018-Aug-14 09:30N 59°21' E 018°08'0 0.0
2018-Aug-14 09:00N 59°21' E 018°08'0 0.0
2018-Aug-14 08:30N 59°21' E 018°08'0 0.0
2018-Aug-14 08:00N 59°21' E 018°08'0 0.0
2018-Aug-14 07:30N 59°21' E 018°08'0 0.0
2018-Aug-14 07:00N 59°21' E 018°08'0 0.1
2018-Aug-14 06:30N 59°21' E 018°08'4 7.4
2018-Aug-14 06:00N 59°21' E 018°15'5 9.7
2018-Aug-14 05:30N 59°22' E 018°24'3 5.6
2018-Aug-14 05:00N 59°25' E 018°25'5 9.6
2018-Aug-14 04:30N 59°29' E 018°27'5 9.7
2018-Aug-14 04:00N 59°32' E 018°35'510.6
2018-Aug-14 03:30N 59°35' E 018°44'612.1
2018-Aug-14 03:00N 59°39' E 018°53'510.5
2018-Aug-14 02:30N 59°42' E 019°02'917.5
2018-Aug-14 02:00N 59°45' E 019°18'713.9
2018-Aug-14 01:30N 59°48' E 019°31'816.2
2018-Aug-14 01:00N 59°47' E 019°47'815.0
2018-Aug-14 00:30N 59°42' E 019°58'3316.6
2018-Aug-13 22:32N 59°31' E 020°59'120.5
2018-Aug-13 22:30N 59°31' E 021°00'1020.2
2018-Aug-13 22:01N 59°27' E 021°18'1120.6
2018-Aug-13 21:29N 59°26' E 021°39'3820.2
2018-Aug-13 19:36N 59°34' E 022°53'320.0
2018-Aug-13 19:27N 59°35' E 022°58'920.1
2018-Aug-13 19:01N 59°37' E 023°15'1019.9
2018-Aug-13 18:31N 59°40' E 023°34'1019.7
2018-Aug-13 18:00N 59°43' E 023°53'1019.8
2018-Aug-13 17:29N 59°45' E 024°13'919.7
2018-Aug-13 17:01N 59°48' E 024°31'1019.5
2018-Aug-13 16:31N 59°50' E 024°50'918.1
2018-Aug-13 16:01N 59°59' E 024°57'714.6
2018-Aug-13 15:30N 60°06' E 024°54'3 6.4
2018-Aug-13 15:00N 60°09' E 024°55'0 0.1
2018-Aug-13 14:27N 60°09' E 024°55'0 0.0
2018-Aug-13 14:00N 60°09' E 024°55'0 0.0
2018-Aug-13 13:30N 60°09' E 024°55'0 0.0
2018-Aug-13 13:00N 60°09' E 024°55'0 0.0
2018-Aug-13 12:30N 60°09' E 024°55'0 0.0
2018-Aug-13 12:00N 60°09' E 024°55'0 0.0
2018-Aug-13 11:30N 60°09' E 024°55'0 0.0
2018-Aug-13 11:00N 60°09' E 024°55'0 0.0
2018-Aug-13 10:30N 60°09' E 024°55'0 0.0
2018-Aug-13 09:57N 60°09' E 024°55'0 0.0
2018-Aug-13 09:30N 60°09' E 024°55'0 0.0
2018-Aug-13 08:54N 60°09' E 024°55'0 0.0
2018-Aug-13 08:30N 60°09' E 024°55'0 0.0
2018-Aug-13 08:00N 60°09' E 024°55'1 1.7
2018-Aug-13 07:30N 60°08' E 024°54'714.5
2018-Aug-13 07:00N 60°01' E 024°56'815.5
2018-Aug-13 06:31N 59°54' E 024°59'1018.9
2018-Aug-13 06:00N 59°53' E 025°18'1020.3
2018-Aug-13 05:30N 59°54' E 025°38'1520.4
2018-Aug-13 04:47N 59°58' E 026°06'720.6
2018-Aug-13 04:28N 59°60' E 026°19'920.5
2018-Aug-13 04:00N 60°01' E 026°37'1020.5
2018-Aug-13 03:30N 59°60' E 026°57'1020.1
2018-Aug-13 03:00N 60°03' E 027°16'1020.4
2018-Aug-13 02:30N 60°08' E 027°34'1019.3
2018-Aug-13 02:00N 60°11' E 027°52'1020.1
2018-Aug-13 01:30N 60°09' E 028°12'1019.3
2018-Aug-13 01:00N 60°04' E 028°29'1019.5
2018-Aug-13 00:31N 60°03' E 028°48'1019.7
2018-Aug-12 23:59N 60°02' E 029°08'917.9
2018-Aug-12 23:28N 60°02' E 029°27'510.0
2018-Aug-12 22:58N 60°00' E 029°37'510.5
2018-Aug-12 22:30N 59°59' E 029°46'5 9.8
2018-Aug-12 22:00N 59°56' E 029°54'5 9.6
2018-Aug-12 21:30N 59°56' E 030°04'4 7.5
2018-Aug-12 21:00N 59°57' E 030°11'0 0.3
2018-Aug-12 20:29N 59°57' E 030°11'0 0.0
2018-Aug-12 19:59N 59°57' E 030°11'0 0.0
2018-Aug-12 19:29N 59°57' E 030°11'0 0.0
2018-Aug-12 18:59N 59°57' E 030°11'0 0.0
2018-Aug-12 18:29N 59°57' E 030°11'0 0.0
2018-Aug-12 17:59N 59°57' E 030°11'0 0.0
2018-Aug-12 17:29N 59°57' E 030°11'0 0.0
2018-Aug-12 16:59N 59°57' E 030°11'0 0.0
2018-Aug-12 16:29N 59°57' E 030°11'0 0.0
2018-Aug-12 15:59N 59°57' E 030°11'0 0.0
2018-Aug-12 15:29N 59°57' E 030°11'0 0.0
2018-Aug-12 14:59N 59°57' E 030°11'0 0.0
2018-Aug-12 14:29N 59°57' E 030°11'0 0.0
2018-Aug-12 13:59N 59°57' E 030°11'0 0.0
2018-Aug-12 13:29N 59°57' E 030°11'0 0.0
2018-Aug-12 12:59N 59°57' E 030°11'0 0.0
2018-Aug-12 12:29N 59°57' E 030°11'0 0.0
2018-Aug-12 11:59N 59°57' E 030°11'0 0.0
2018-Aug-12 11:29N 59°57' E 030°11'0 0.0
2018-Aug-12 10:59N 59°57' E 030°11'0 0.0
2018-Aug-12 10:29N 59°57' E 030°11'0 0.0
2018-Aug-12 09:59N 59°57' E 030°11'0 0.0
2018-Aug-12 09:29N 59°57' E 030°11'0 0.0
2018-Aug-12 08:59N 59°57' E 030°11'0 0.0
2018-Aug-12 08:29N 59°57' E 030°11'0 0.0
2018-Aug-12 07:59N 59°57' E 030°11'0 0.0
2018-Aug-12 07:23N 59°57' E 030°11'0 0.0
2018-Aug-12 06:59N 59°57' E 030°11'0 0.0
2018-Aug-12 06:29N 59°57' E 030°11'0 0.0
2018-Aug-12 05:59N 59°57' E 030°11'0 0.0
2018-Aug-12 05:29N 59°57' E 030°11'0 0.0
2018-Aug-12 04:59N 59°57' E 030°11'0 0.0
2018-Aug-12 04:29N 59°57' E 030°11'0 0.0
2018-Aug-12 03:59N 59°57' E 030°11'0 0.0
2018-Aug-12 03:29N 59°57' E 030°11'0 0.3
2018-Aug-12 03:00N 59°57' E 030°11'4 7.6
2018-Aug-12 02:30N 59°56' E 030°04'5 9.9
2018-Aug-12 02:00N 59°57' E 029°54'510.1
2018-Aug-12 01:30N 59°59' E 029°45'510.9
2018-Aug-12 01:00N 60°01' E 029°35'5 9.7
2018-Aug-12 00:30N 60°01' E 029°25'917.3
2018-Aug-11 23:59N 60°02' E 029°07'816.8
2018-Aug-11 23:30N 60°02' E 028°51'917.8
2018-Aug-11 23:00N 60°02' E 028°33'917.3
2018-Aug-11 22:30N 60°06' E 028°18'917.4
2018-Aug-11 22:00N 60°09' E 028°01'815.8
2018-Aug-11 21:31N 60°10' E 027°46'816.9
2018-Aug-11 21:01N 60°06' E 027°31'917.6
2018-Aug-11 20:30N 60°01' E 027°16'816.8
2018-Aug-11 20:00N 59°58' E 027°01'816.9
2018-Aug-11 19:31N 59°59' E 026°45'816.9
2018-Aug-11 19:01N 59°57' E 026°28'917.1
2018-Aug-11 18:31N 59°55' E 026°11'816.9
2018-Aug-11 18:01N 59°53' E 025°55'917.0
2018-Aug-11 17:31N 59°51' E 025°39'917.1
2018-Aug-11 17:00N 59°49' E 025°22'917.2
2018-Aug-11 16:31N 59°48' E 025°05'816.4
2018-Aug-11 16:00N 59°44' E 024°50'816.9
2018-Aug-11 15:31N 59°37' E 024°41'815.7
2018-Aug-11 15:01N 59°30' E 024°46'3 4.6
2018-Aug-11 14:27N 59°27' E 024°46'0 0.0
2018-Aug-11 13:59N 59°27' E 024°46'0 0.0
2018-Aug-11 13:29N 59°27' E 024°46'0 0.0
2018-Aug-11 12:59N 59°27' E 024°46'0 0.0
2018-Aug-11 12:29N 59°27' E 024°46'0 0.0
2018-Aug-11 11:59N 59°27' E 024°46'0 0.0
2018-Aug-11 11:29N 59°27' E 024°46'0 0.0
2018-Aug-11 10:56N 59°27' E 024°46'0 0.0
2018-Aug-11 10:29N 59°27' E 024°46'0 0.0
2018-Aug-11 10:00N 59°27' E 024°46'0 0.0
2018-Aug-11 09:30N 59°27' E 024°46'0 0.0
2018-Aug-11 09:00N 59°27' E 024°46'0 0.0
2018-Aug-11 08:29N 59°27' E 024°46'0 0.0
2018-Aug-11 07:59N 59°27' E 024°46'0 0.0
2018-Aug-11 07:29N 59°27' E 024°46'0 0.0
2018-Aug-11 07:00N 59°27' E 024°46'4 7.4
2018-Aug-11 06:30N 59°30' E 024°44'713.5
2018-Aug-11 06:01N 59°30' E 024°30'917.1
2018-Aug-11 05:31N 59°30' E 024°14'917.1
2018-Aug-11 05:00N 59°30' E 023°56'817.0
2018-Aug-11 04:31N 59°30' E 023°40'917.0
2018-Aug-11 04:00N 59°30' E 023°23'916.9
2018-Aug-11 03:28N 59°29' E 023°05'28919.5
2018-Aug-10 12:38N 55°51' E 017°10'420.4
2018-Aug-10 12:27N 55°50' E 017°04'920.5
2018-Aug-10 12:00N 55°48' E 016°48'1020.5
2018-Aug-10 11:30N 55°45' E 016°30'1020.6
2018-Aug-10 11:01N 55°43' E 016°13'1020.9
2018-Aug-10 10:30N 55°40' E 015°55'1020.8
2018-Aug-10 10:00N 55°37' E 015°37'1020.6
2018-Aug-10 09:31N 55°34' E 015°20'1020.7
2018-Aug-10 09:00N 55°30' E 015°03'1121.0
2018-Aug-10 08:30N 55°25' E 014°46'1020.3
2018-Aug-10 08:00N 55°18' E 014°32'1020.5
2018-Aug-10 07:30N 55°10' E 014°22'1020.4
2018-Aug-10 07:00N 55°03' E 014°10'5220.5
2018-Aug-10 04:27N 54°45' E 012°44'920.4
2018-Aug-10 04:00N 54°40' E 012°31'1717.1
2018-Aug-10 03:01N 54°27' E 012°13'120.3
2018-Aug-10 02:59N 54°26' E 012°13'1019.3
2018-Aug-10 02:27N 54°24' E 011°55'919.9
2018-Aug-10 02:00N 54°26' E 011°41'1020.0
2018-Aug-10 01:30N 54°30' E 011°25'1019.8
2018-Aug-10 01:00N 54°35' E 011°10'1019.5
2018-Aug-10 00:30N 54°40' E 010°56'917.0
2018-Aug-10 00:00N 54°48' E 010°51'917.9
2018-Aug-09 23:30N 54°57' E 010°55'917.7
2018-Aug-09 23:00N 55°05' E 011°02'918.0
2018-Aug-09 22:30N 55°14' E 011°06'1118.8
2018-Aug-09 21:55N 55°24' E 010°59'1018.9
2018-Aug-09 21:23N 55°33' E 010°50'5416.3
2018-Aug-09 18:03N 56°11' E 011°59'420.2
2018-Aug-09 17:51N 56°12' E 012°06'719.0
2018-Aug-09 17:30N 56°13' E 012°18'1019.8
2018-Aug-09 17:00N 56°07' E 012°32'816.8
2018-Aug-09 16:30N 56°00' E 012°41'815.5
2018-Aug-09 16:00N 55°52' E 012°40'714.6
2018-Aug-09 15:30N 55°45' E 012°40'3 5.2
2018-Aug-09 15:00N 55°43' E 012°38'0 0.0
2018-Aug-09 14:29N 55°43' E 012°38'0 0.0
2018-Aug-09 13:59N 55°43' E 012°38'0 0.0
2018-Aug-09 13:29N 55°43' E 012°38'0 0.0
2018-Aug-09 12:59N 55°43' E 012°38'0 0.0
2018-Aug-09 12:29N 55°43' E 012°38'0 0.0
2018-Aug-09 11:59N 55°43' E 012°38'0 0.0
2018-Aug-09 11:29N 55°43' E 012°38'0 0.0
2018-Aug-09 10:59N 55°43' E 012°38'0 0.0
2018-Aug-09 10:29N 55°43' E 012°38'0 0.0
2018-Aug-09 09:59N 55°43' E 012°38'0 0.0
2018-Aug-09 09:29N 55°43' E 012°38'0 0.0
2018-Aug-09 08:59N 55°43' E 012°38'0 0.0
2018-Aug-09 08:29N 55°43' E 012°38'0 0.0
2018-Aug-09 07:59N 55°43' E 012°38'0 0.0
2018-Aug-09 07:29N 55°43' E 012°38'0 0.0
2018-Aug-09 06:59N 55°43' E 012°38'0 0.0
2018-Aug-09 06:29N 55°43' E 012°38'0 0.0
2018-Aug-09 05:59N 55°43' E 012°38'0 0.0
2018-Aug-09 05:29N 55°43' E 012°38'0 0.0
2018-Aug-09 04:59N 55°43' E 012°38'0 0.0
2018-Aug-09 04:29N 55°43' E 012°38'0 0.0
2018-Aug-09 03:59N 55°43' E 012°38'0 0.7
2018-Aug-09 03:30N 55°43' E 012°38'5 9.2
2018-Aug-09 03:01N 55°47' E 012°42'612.5
2018-Aug-09 02:31N 55°53' E 012°39'612.1
2018-Aug-09 02:00N 55°59' E 012°40'612.9
2018-Aug-09 01:30N 56°05' E 012°35'816.9
2018-Aug-09 01:00N 56°10' E 012°23'6513.0
2018-Aug-08 20:01N 55°24' E 011°00'216.4
2018-Aug-08 19:53N 55°23' E 011°02'717.8
2018-Aug-08 19:30N 55°16' E 011°05'816.9
2018-Aug-08 19:00N 55°08' E 011°03'918.1
2018-Aug-08 18:30N 54°59' E 011°01'1019.7
2018-Aug-08 18:00N 54°50' E 010°53'917.8
2018-Aug-08 17:30N 54°41' E 010°54'1019.3
2018-Aug-08 17:00N 54°37' E 011°09'1020.0
2018-Aug-08 16:30N 54°32' E 011°24'919.0
2018-Aug-08 16:00N 54°28' E 011°39'918.6
2018-Aug-08 15:30N 54°26' E 011°54'918.4
2018-Aug-08 15:00N 54°28' E 012°10'918.3
2018-Aug-08 14:30N 54°36' E 012°17'917.7
2018-Aug-08 14:00N 54°42' E 012°28'919.1
2018-Aug-08 13:30N 54°47' E 012°42'1019.7
2018-Aug-08 13:00N 54°50' E 012°58'1020.5
2018-Aug-08 12:30N 54°54' E 013°15'1020.5
2018-Aug-08 12:00N 54°57' E 013°32'1020.2
2018-Aug-08 11:30N 55°00' E 013°48'1021.0
2018-Aug-08 11:00N 55°05' E 014°05'1121.9
2018-Aug-08 10:30N 55°14' E 014°16'1121.8
2018-Aug-08 10:00N 55°22' E 014°29'1121.7
2018-Aug-08 09:30N 55°29' E 014°44'1020.4
2018-Aug-08 09:00N 55°33' E 014°60'1020.2
2018-Aug-08 08:30N 55°38' E 015°16'1020.3
2018-Aug-08 08:00N 55°41' E 015°33'1020.5
2018-Aug-08 07:30N 55°43' E 015°51'1020.5
2018-Aug-08 07:00N 55°46' E 016°08'1020.6
2018-Aug-08 06:30N 55°48' E 016°26'1020.5
2018-Aug-08 06:00N 55°50' E 016°44'1020.7
2018-Aug-08 05:30N 55°53' E 017°02'1020.6
2018-Aug-08 05:01N 55°56' E 017°19'1020.5
2018-Aug-08 04:30N 55°59' E 017°37'1020.4
2018-Aug-08 04:00N 56°03' E 017°53'1020.4
2018-Aug-08 03:30N 56°09' E 018°09'1020.1
2018-Aug-08 03:00N 56°14' E 018°24'1020.2
2018-Aug-08 02:30N 56°19' E 018°40'1019.8
2018-Aug-08 02:00N 56°27' E 018°50'1121.6
2018-Aug-08 01:30N 56°37' E 018°59'1121.6
2018-Aug-08 01:00N 56°46' E 019°08'1121.7
2018-Aug-08 00:30N 56°56' E 019°18'  

Dump ship's entire track history